Time;durP1;ratioP1;P1;durP2;ratioP2;P2;SDS_P1;SDS_P2;PMS_P1;PMS_P2;Temp;Humidity;BMP_temperature;BMP_pressure;BME280_temperature;BME280_humidity;BME280_pressure;Samples;Min_cycle;Max_cycle;Signal;HPM_P1;HPM_P2
2024/04/23 00:01:21;;;;;;;3.73;3.17;;;4.80;99.90;;;;;;5465289;26;20279;-61
2024/04/23 00:03:47;;;;;;;3.83;2.50;;;4.70;99.90;;;;;;5465880;26;20230;-61
2024/04/23 00:06:15;;;;;;;2.90;2.60;;;4.70;99.90;;;;;;5471245;26;20232;-61
2024/04/23 00:08:41;;;;;;;4.63;3.20;;;4.70;99.90;;;;;;5471878;26;20265;-61
2024/04/23 00:11:12;;;;;;;4.07;3.03;;;4.70;99.90;;;;;;5466820;26;20277;-61
2024/04/23 00:13:37;;;;;;;3.10;2.80;;;4.70;99.90;;;;;;5465727;26;20230;-61
2024/04/23 00:16:06;;;;;;;4.00;3.33;;;4.70;99.90;;;;;;5469040;26;20268;-61
2024/04/23 00:18:32;;;;;;;4.60;3.27;;;4.70;99.90;;;;;;5471842;26;20775;-59
2024/04/23 00:21:00;;;;;;;5.10;3.47;;;4.70;99.90;;;;;;5468771;26;20233;-61
2024/04/23 00:23:26;;;;;;;4.30;3.17;;;4.60;99.90;;;;;;5465545;26;20273;-61
2024/04/23 00:25:55;;;;;;;4.20;3.00;;;4.60;99.90;;;;;;5465786;26;20248;-61
2024/04/23 00:28:23;;;;;;;3.87;3.43;;;4.60;99.90;;;;;;5471595;26;20275;-60
2024/04/23 00:30:51;;;;;;;4.73;3.20;;;4.60;99.90;;;;;;5473240;26;20252;-61
2024/04/23 00:33:17;;;;;;;4.07;3.47;;;4.50;99.90;;;;;;5454507;26;20234;-61
2024/04/23 00:35:46;;;;;;;3.57;3.17;;;4.40;99.90;;;;;;5468901;26;20280;-61
2024/04/23 00:38:11;;;;;;;4.00;3.43;;;4.30;99.90;;;;;;5474133;26;20229;-61
2024/04/23 00:40:40;;;;;;;5.83;3.23;;;4.30;99.90;;;;;;5474643;26;20271;-60
2024/04/23 00:43:05;;;;;;;5.63;3.27;;;4.20;99.90;;;;;;5470960;26;20271;-61
2024/04/23 00:45:45;;;;;;;4.17;3.17;;;4.20;99.90;;;;;;5468686;26;20234;-61
2024/04/23 00:48:11;;;;;;;4.13;2.90;;;4.20;99.90;;;;;;5473540;26;20237;-61
2024/04/23 00:50:40;;;;;;;4.37;3.47;;;4.20;99.90;;;;;;5474269;26;20237;-60
2024/04/23 00:53:06;;;;;;;3.60;3.23;;;4.10;99.90;;;;;;5470800;26;20279;-61
2024/04/23 00:55:35;;;;;;;4.27;3.40;;;4.00;99.90;;;;;;5468466;26;20242;-60
2024/04/23 00:58:02;;;;;;;4.50;3.40;;;3.90;99.90;;;;;;5470843;26;20678;-61
2024/04/23 01:00:31;;;;;;;4.27;3.00;;;3.90;99.90;;;;;;5474456;26;20233;-60
2024/04/23 01:02:59;;;;;;;5.27;4.10;;;3.80;99.90;;;;;;5472901;26;20272;-61
2024/04/23 01:05:28;;;;;;;9.20;6.93;;;3.80;99.90;;;;;;5468539;26;20767;-61
2024/04/23 01:07:53;;;;;;;13.00;8.33;;;3.70;99.90;;;;;;5468885;26;20230;-61
2024/04/23 01:10:22;;;;;;;11.57;7.70;;;3.70;99.90;;;;;;5474305;26;20271;-60
2024/04/23 01:12:47;;;;;;;6.10;5.00;;;3.60;99.90;;;;;;5473953;26;20228;-60
2024/04/23 01:15:17;;;;;;;8.63;6.40;;;3.60;99.90;;;;;;5468644;26;20269;-59
2024/04/23 01:17:46;;;;;;;4.47;3.87;;;3.60;99.90;;;;;;5468346;26;20230;-59
2024/04/23 01:20:19;;;;;;;4.97;3.53;;;3.60;99.90;;;;;;5473244;26;20271;-61
2024/04/23 01:22:55;;;;;;;4.47;3.07;;;3.60;99.90;;;;;;5474095;26;20271;-61
2024/04/23 01:25:25;;;;;;;5.70;3.93;;;3.60;99.90;;;;;;5454215;26;20741;-61
2024/04/23 01:27:54;;;;;;;4.77;3.50;;;3.60;99.90;;;;;;5468054;26;20272;-60
2024/04/23 01:30:24;;;;;;;4.33;3.70;;;3.60;99.90;;;;;;5453748;26;20234;-60
2024/04/23 01:32:52;;;;;;;4.43;3.23;;;3.60;99.90;;;;;;5467915;26;20226;-59
2024/04/23 01:35:21;;;;;;;4.93;3.37;;;3.50;99.90;;;;;;5453155;26;20746;-61
2024/04/23 01:37:50;;;;;;;3.10;2.80;;;3.50;99.90;;;;;;5467913;26;20572;-61
2024/04/23 01:40:19;;;;;;;3.63;3.10;;;3.40;99.90;;;;;;5473680;26;20660;-61
2024/04/23 01:42:47;;;;;;;3.87;3.00;;;3.40;99.90;;;;;;5472385;26;20229;-61
2024/04/23 01:45:18;;;;;;;4.17;3.00;;;3.40;99.90;;;;;;5468850;26;20284;-61
2024/04/23 01:47:45;;;;;;;3.90;3.27;;;3.40;99.90;;;;;;5467878;26;20258;-59
2024/04/23 01:50:14;;;;;;;4.80;3.50;;;3.40;99.90;;;;;;5472150;26;20234;-60
2024/04/23 01:52:40;;;;;;;3.43;3.13;;;3.30;99.90;;;;;;5473447;26;20263;-61
2024/04/23 01:55:09;;;;;;;4.10;3.60;;;3.30;99.90;;;;;;5470418;26;20718;-60
2024/04/23 01:57:35;;;;;;;4.87;3.60;;;3.30;99.90;;;;;;5467621;26;20230;-60
2024/04/23 02:00:08;;;;;;;4.70;3.40;;;3.20;99.90;;;;;;5469696;26;20772;-61
2024/04/23 02:02:38;;;;;;;4.50;4.10;;;3.20;99.90;;;;;;5473468;26;20336;-61
2024/04/23 02:05:09;;;;;;;5.40;3.70;;;3.10;99.90;;;;;;5470568;26;20229;-61
2024/04/23 02:07:36;;;;;;;4.70;3.73;;;3.00;99.90;;;;;;5467728;26;20264;-60
2024/04/23 02:10:05;;;;;;;5.00;3.60;;;3.00;99.90;;;;;;5469612;26;20268;-60
2024/04/23 02:12:31;;;;;;;4.77;3.70;;;3.00;99.90;;;;;;5472992;26;20229;-62
2024/04/23 02:14:59;;;;;;;5.13;3.80;;;2.90;99.90;;;;;;5472224;26;20266;-61
2024/04/23 02:17:25;;;;;;;4.57;3.40;;;2.90;99.90;;;;;;5467475;26;20256;-62
2024/04/23 02:19:56;;;;;;;3.93;3.57;;;2.90;99.90;;;;;;5466752;26;20238;-60
2024/04/23 02:22:22;;;;;;;4.13;3.70;;;2.90;99.90;;;;;;5452497;26;20281;-61
2024/04/23 02:24:50;;;;;;;4.67;4.03;;;2.90;99.90;;;;;;5466872;26;20234;-60
2024/04/23 02:27:16;;;;;;;4.47;3.63;;;3.00;99.90;;;;;;5472825;26;20232;-63
2024/04/23 02:29:44;;;;;;;6.63;4.00;;;3.00;99.90;;;;;;5473301;26;20268;-61
2024/04/23 02:32:10;;;;;;;5.10;4.00;;;3.00;99.90;;;;;;5468632;26;20233;-61
2024/04/23 02:34:38;;;;;;;5.30;4.23;;;2.90;99.90;;;;;;5467196;26;20272;-61
2024/04/23 02:37:06;;;;;;;5.87;4.23;;;2.90;99.90;;;;;;5469804;26;20234;-61
2024/04/23 02:39:35;;;;;;;5.33;4.70;;;2.90;99.90;;;;;;5473571;26;20233;-61
2024/04/23 02:42:01;;;;;;;4.60;4.03;;;2.90;99.90;;;;;;5471106;26;20742;-61
2024/04/23 02:44:30;;;;;;;4.73;4.00;;;2.80;99.90;;;;;;5466943;26;20276;-61
2024/04/23 02:46:55;;;;;;;4.73;4.03;;;2.80;99.90;;;;;;5467309;26;20230;-61
2024/04/23 02:49:24;;;;;;;4.97;4.23;;;2.80;99.90;;;;;;5473000;26;20233;-59
2024/04/23 02:51:50;;;;;;;4.17;3.67;;;2.80;99.90;;;;;;5472834;26;20377;-61
2024/04/23 02:54:22;;;;;;;4.47;3.60;;;2.70;99.90;;;;;;5467133;26;20234;-62
2024/04/23 02:56:48;;;;;;;5.13;3.87;;;2.70;99.90;;;;;;5466793;26;20350;-62
2024/04/23 02:59:17;;;;;;;4.73;3.83;;;2.60;99.90;;;;;;5471379;26;20775;-62
2024/04/23 03:01:43;;;;;;;4.83;3.77;;;2.50;99.90;;;;;;5472234;26;20232;-62
2024/04/23 03:04:11;;;;;;;4.70;3.60;;;2.50;99.90;;;;;;5469199;26;20275;-63
2024/04/23 03:06:37;;;;;;;4.67;3.97;;;2.50;99.90;;;;;;5466555;26;20230;-62
2024/04/23 03:09:05;;;;;;;7.90;4.13;;;2.50;99.90;;;;;;5468488;26;20268;-61
2024/04/23 03:11:34;;;;;;;6.37;4.17;;;2.40;99.90;;;;;;5472279;26;20233;-61
2024/04/23 03:14:02;;;;;;;4.53;4.03;;;2.20;99.90;;;;;;5471484;26;20229;-61
2024/04/23 03:16:28;;;;;;;5.63;4.13;;;2.10;99.90;;;;;;5466384;26;20234;-59
2024/04/23 03:18:56;;;;;;;5.10;3.83;;;2.20;99.90;;;;;;5466512;26;20773;-61
2024/04/23 03:21:22;;;;;;;5.57;4.10;;;2.30;99.90;;;;;;5451423;26;20241;-60
2024/04/23 03:23:50;;;;;;;4.03;3.63;;;2.20;99.90;;;;;;5466280;26;20704;-60
2024/04/23 03:26:16;;;;;;;5.00;4.33;;;2.20;99.90;;;;;;5471340;26;20275;-63
2024/04/23 03:28:47;;;;;;;7.00;6.40;;;2.30;99.90;;;;;;5472487;26;20706;-61
2024/04/23 03:31:12;;;;;;;6.53;5.57;;;2.40;99.90;;;;;;5467658;26;20232;-61
2024/04/23 03:33:41;;;;;;;5.20;4.57;;;2.40;99.90;;;;;;5466702;26;20770;-60
2024/04/23 03:36:07;;;;;;;5.17;4.50;;;2.50;99.90;;;;;;5468805;26;20741;-61
2024/04/23 03:38:36;;;;;;;5.47;4.23;;;2.40;99.90;;;;;;5472344;26;20268;-61
2024/04/23 03:41:04;;;;;;;6.77;4.70;;;2.50;99.90;;;;;;5470094;26;20236;-61
2024/04/23 03:43:32;;;;;;;5.07;4.30;;;2.50;99.90;;;;;;5465805;26;20676;-61
2024/04/23 03:46:03;;;;;;;5.17;4.40;;;2.50;99.90;;;;;;5466407;26;20337;-61
2024/04/23 03:48:31;;;;;;;5.73;4.00;;;2.50;99.90;;;;;;5472249;26;20229;-60
2024/04/23 03:50:57;;;;;;;5.23;3.87;;;2.50;99.90;;;;;;5470993;26;20232;-60
2024/04/23 03:53:25;;;;;;;8.37;4.33;;;2.40;99.90;;;;;;5465659;26;20276;-59
2024/04/23 03:55:51;;;;;;;4.57;4.10;;;2.40;99.90;;;;;;5465753;26;20234;-60
2024/04/23 03:58:20;;;;;;;5.17;4.10;;;2.40;99.90;;;;;;5470899;26;20277;-60
2024/04/23 04:00:45;;;;;;;5.30;4.03;;;2.40;99.90;;;;;;5471301;26;20232;-60
2024/04/23 04:06:06;;;;;;;6.63;4.67;;;2.40;99.90;;;;;;5471270;26;20269;-60
2024/04/23 04:08:35;;;;;;;6.17;4.93;;;2.40;99.90;;;;;;5475527;26;20583;-60
2024/04/23 04:11:04;;;;;;;6.57;4.27;;;2.40;99.90;;;;;;5473275;26;20284;-60
2024/04/23 04:13:33;;;;;;;5.90;4.43;;;2.40;99.90;;;;;;5469064;26;20284;-60
2024/04/23 04:15:58;;;;;;;4.97;4.00;;;2.40;99.90;;;;;;5469483;26;20321;-60
2024/04/23 04:18:29;;;;;;;6.70;4.20;;;2.40;99.90;;;;;;5475229;26;20233;-60
2024/04/23 04:20:55;;;;;;;6.43;4.73;;;2.40;99.90;;;;;;5474786;26;20571;-60
2024/04/23 04:23:23;;;;;;;11.40;6.03;;;2.50;99.90;;;;;;5469005;26;20234;-60
2024/04/23 04:25:50;;;;;;;6.70;3.90;;;2.50;99.90;;;;;;5468741;26;20230;-60
2024/04/23 04:28:18;;;;;;;5.43;4.00;;;2.50;99.90;;;;;;5473671;26;20334;-60
2024/04/23 04:30:44;;;;;;;8.07;3.93;;;2.50;99.90;;;;;;5474411;26;20233;-61
2024/04/23 04:33:13;;;;;;;8.53;6.53;;;2.50;99.90;;;;;;5471685;26;20271;-60
2024/04/23 04:35:41;;;;;;;10.67;7.97;;;2.50;99.90;;;;;;5468778;26;20234;-60
2024/04/23 04:38:09;;;;;;;8.60;6.87;;;2.40;99.90;;;;;;5470847;26;20234;-62
2024/04/23 04:40:35;;;;;;;9.93;7.43;;;2.40;99.90;;;;;;5474758;26;20233;-61
2024/04/23 04:43:03;;;;;;;9.60;7.43;;;2.40;99.90;;;;;;5473708;26;20291;-60
2024/04/23 04:45:29;;;;;;;9.43;6.87;;;2.40;99.90;;;;;;5468302;26;20260;-61
2024/04/23 04:47:57;;;;;;;8.73;7.10;;;2.40;99.90;;;;;;5468754;26;20504;-61
2024/04/23 04:50:23;;;;;;;7.27;5.53;;;2.40;99.90;;;;;;5453601;26;20241;-61
2024/04/23 04:52:54;;;;;;;6.07;4.80;;;2.50;99.90;;;;;;5468125;26;20726;-61
2024/04/23 04:55:20;;;;;;;7.70;4.90;;;2.60;99.90;;;;;;5473948;26;20229;-60
2024/04/23 04:57:48;;;;;;;6.77;4.73;;;2.70;99.90;;;;;;5474665;26;20232;-61
2024/04/23 05:00:14;;;;;;;6.90;5.43;;;2.80;99.90;;;;;;5470152;26;20559;-61
2024/04/23 05:02:43;;;;;;;6.67;4.83;;;2.80;99.90;;;;;;5463878;21;20292;-63
2024/04/23 05:05:08;;;;;;;7.53;5.17;;;2.80;99.90;;;;;;5435650;26;20234;-64
2024/04/23 05:07:37;;;;;;;5.47;4.90;;;2.80;99.90;;;;;;5432096;26;20277;-63
2024/04/23 05:10:06;;;;;;;5.80;4.70;;;2.70;99.90;;;;;;5432965;26;20239;-64
2024/04/23 05:12:37;;;;;;;9.23;5.03;;;2.80;99.90;;;;;;5422777;26;20237;-62
2024/04/23 05:15:03;;;;;;;5.70;4.73;;;2.80;99.90;;;;;;5420828;26;20277;-63
2024/04/23 05:17:31;;;;;;;8.73;5.73;;;2.80;99.90;;;;;;5411148;26;20244;-64
2024/04/23 05:19:59;;;;;;;6.10;5.03;;;2.80;99.90;;;;;;5411018;26;20232;-64
2024/04/23 05:22:27;;;;;;;6.13;4.90;;;2.90;99.90;;;;;;5423300;26;20646;-64
2024/04/23 05:24:53;;;;;;;7.53;5.33;;;2.90;99.90;;;;;;5423156;26;20234;-64
2024/04/23 05:27:24;;;;;;;7.80;5.10;;;3.10;99.90;;;;;;5413303;26;20243;-63
2024/04/23 05:29:53;;;;;;;6.10;5.00;;;3.20;99.90;;;;;;5410978;26;20232;-64
2024/04/23 05:35:07;;;;;;;7.67;4.97;;;3.40;99.90;;;;;;5423266;26;20305;-64
2024/04/23 05:37:35;;;;;;;7.23;5.33;;;3.60;99.90;;;;;;5410669;26;20232;-62
2024/04/23 05:40:03;;;;;;;14.70;8.93;;;4.00;99.90;;;;;;5411756;26;20232;-63
2024/04/23 05:42:34;;;;;;;7.00;4.60;;;4.90;99.90;;;;;;5422779;26;20288;-64
2024/04/23 05:45:03;;;;;;;8.00;4.30;;;6.20;99.90;;;;;;5422448;26;20230;-64
2024/04/23 05:47:31;;;;;;;4.87;4.13;;;7.00;99.90;;;;;;5410829;26;20749;-64
2024/04/23 05:50:37;;;;;;;5.53;3.77;;;8.40;99.90;;;;;;5411025;26;20232;-64
2024/04/23 05:53:43;;;;;;;4.40;3.47;;;10.60;99.90;;;;;;5425395;26;20226;-63
2024/04/23 05:56:09;;;;;;;4.93;3.70;;;13.00;99.90;;;;;;5414904;26;20258;-63
2024/04/23 05:58:40;;;;;;;4.37;3.40;;;14.60;96.30;;;;;;5422835;26;20234;-65
2024/04/23 06:01:05;;;;;;;4.40;3.57;;;14.30;93.60;;;;;;5419524;26;20230;-64
2024/04/23 06:03:34;;;;;;;3.80;3.50;;;15.00;93.90;;;;;;5410892;26;20232;-62
2024/04/23 06:05:59;;;;;;;5.95;3.60;;;16.50;92.50;;;;;;5411182;26;20236;-64
2024/04/23 06:08:28;;;;;;;6.63;3.55;;;17.90;90.40;;;;;;5423186;26;20280;-62
2024/04/23 06:10:53;;;;;;;5.28;3.20;;;18.80;81.50;;;;;;5422389;26;20276;-62
2024/04/23 06:13:22;;;;;;;4.32;3.40;;;19.40;75.00;;;;;;5413501;26;20234;-62
2024/04/23 06:15:50;;;;;;;4.50;3.42;;;19.80;75.00;;;;;;5410705;26;20259;-64
2024/04/23 06:18:22;;;;;;;3.92;3.42;;;19.80;69.70;;;;;;5418323;26;20383;-64
2024/04/23 06:20:51;;;;;;;4.55;3.10;;;19.80;70.50;;;;;;5422226;26;20242;-64
2024/04/23 06:23:20;;;;;;;3.47;2.95;;;20.30;68.30;;;;;;5414508;26;20234;-64
2024/04/23 06:25:46;;;;;;;4.30;3.17;;;20.90;66.60;;;;;;5410749;26;20748;-62
2024/04/23 06:28:14;;;;;;;3.25;2.95;;;21.40;64.20;;;;;;5415246;26;20236;-61
2024/04/23 06:30:41;;;;;;;3.30;2.88;;;21.80;61.30;;;;;;5422314;26;20276;-62
2024/04/23 06:33:12;;;;;;;4.43;2.78;;;22.20;59.30;;;;;;5420248;26;20726;-62
2024/04/23 06:35:37;;;;;;;4.18;3.13;;;22.40;58.60;;;;;;5410738;26;20228;-62
2024/04/23 06:38:06;;;;;;;4.07;2.97;;;22.30;57.20;;;;;;5411993;26;20267;-63
2024/04/23 06:40:32;;;;;;;5.38;2.92;;;21.70;57.30;;;;;;5423887;26;20387;-61
2024/04/23 06:43:00;;;;;;;3.78;3.22;;;21.20;58.70;;;;;;5423132;26;20234;-61
2024/04/23 06:45:26;;;;;;;3.20;2.90;;;21.10;57.20;;;;;;5408274;26;20268;-61
2024/04/23 06:47:54;;;;;;;4.60;3.20;;;20.40;58.20;;;;;;5424497;26;20229;-63
2024/04/23 06:50:23;;;;;;;4.72;3.22;;;20.10;59.50;;;;;;5413694;26;20230;-63
2024/04/23 06:52:51;;;;;;;3.25;2.92;;;20.40;58.30;;;;;;5409477;26;20240;-61
2024/04/23 06:55:17;;;;;;;4.55;3.20;;;20.20;57.30;;;;;;5417381;26;20232;-61
2024/04/23 06:57:46;;;;;;;3.65;3.08;;;20.60;57.20;;;;;;5421943;26;20610;-61
2024/04/23 07:00:12;;;;;;;3.47;2.97;;;21.60;56.10;;;;;;5416983;26;20229;-61
2024/04/23 07:02:40;;;;;;;3.72;2.85;;;22.90;54.60;;;;;;5409169;26;20786;-61
2024/04/23 07:05:06;;;;;;;4.13;2.70;;;23.10;53.00;;;;;;5411816;26;20231;-60
2024/04/23 07:07:37;;;;;;;3.50;3.20;;;23.20;52.60;;;;;;5421595;26;20234;-60
2024/04/23 07:10:04;;;;;;;3.25;2.85;;;23.70;52.40;;;;;;5420907;26;20234;-61
2024/04/23 07:12:32;;;;;;;3.05;2.75;;;23.80;51.40;;;;;;5409121;26;20753;-62
2024/04/23 07:14:58;;;;;;;3.70;2.83;;;24.00;50.80;;;;;;5409438;26;20693;-61
2024/04/23 07:17:27;;;;;;;3.28;2.70;;;24.50;50.00;;;;;;5420440;26;20234;-61
2024/04/23 07:19:52;;;;;;;3.15;2.55;;;25.00;49.60;;;;;;5422142;26;20291;-60
2024/04/23 07:22:21;;;;;;;3.88;3.08;;;25.30;48.00;;;;;;5413223;26;20234;-60
2024/04/23 07:24:49;;;;;;;5.03;3.42;;;25.40;47.50;;;;;;5409596;26;20279;-58
2024/04/23 07:27:17;;;;;;;4.35;3.15;;;25.10;47.60;;;;;;5415824;26;20755;-61
2024/04/23 07:29:43;;;;;;;4.05;2.60;;;25.00;47.90;;;;;;5421683;26;20272;-61
2024/04/23 07:32:13;;;;;;;3.95;2.80;;;24.90;47.60;;;;;;5417554;26;20572;-60
2024/04/23 07:34:38;;;;;;;3.47;2.88;;;24.90;47.40;;;;;;5409212;26;20575;-61
2024/04/23 07:37:07;;;;;;;7.70;3.10;;;24.70;47.60;;;;;;5409645;26;20294;-62
2024/04/23 07:39:32;;;;;;;3.80;3.05;;;24.90;47.80;;;;;;5421706;26;20314;-60
2024/04/23 07:42:03;;;;;;;4.93;3.00;;;24.40;47.70;;;;;;5424169;26;20276;-65
2024/04/23 07:44:29;;;;;;;3.53;3.22;;;23.40;48.80;;;;;;5410626;26;20267;-62
2024/04/23 07:46:58;;;;;;;4.90;3.35;;;20.70;52.00;;;;;;5424589;26;20263;-68
2024/04/23 07:49:26;;;;;;;3.03;2.72;;;20.80;52.40;;;;;;5414584;26;20240;-65
2024/04/23 07:51:54;;;;;;;4.43;3.05;;;21.60;52.10;;;;;;5412022;26;20235;-63
2024/04/23 07:54:20;;;;;;;4.50;2.75;;;21.50;51.00;;;;;;5420897;26;20629;-63
2024/04/23 07:56:48;;;;;;;4.07;3.17;;;19.50;53.40;;;;;;5424217;26;20234;-62
2024/04/23 07:59:20;;;;;;;4.18;3.75;;;17.70;57.60;;;;;;5418692;26;20260;-64
2024/04/23 08:01:46;;;;;;;4.85;2.70;;;18.20;57.00;;;;;;5411656;26;20581;-60
2024/04/23 08:04:14;;;;;;;4.20;3.20;;;19.30;55.60;;;;;;5416182;26;20240;-62
2024/04/23 08:06:40;;;;;;;2.92;2.65;;;20.50;54.00;;;;;;5424322;26;20718;-61
2024/04/23 08:09:08;;;;;;;3.25;2.83;;;21.40;51.80;;;;;;5423168;26;20238;-61
2024/04/23 08:11:34;;;;;;;4.90;2.92;;;20.70;51.80;;;;;;5411379;26;20235;-62
2024/04/23 08:14:02;;;;;;;3.72;2.92;;;20.00;52.20;;;;;;5412042;26;20240;-61
2024/04/23 08:16:30;;;;;;;3.40;3.10;;;19.80;53.20;;;;;;5424067;26;20230;-63
2024/04/23 08:18:59;;;;;;;5.07;3.00;;;20.50;52.20;;;;;;5424101;26;20230;-62
2024/04/23 08:21:25;;;;;;;4.35;3.00;;;20.00;51.40;;;;;;5413171;26;20242;-63
2024/04/23 08:23:53;;;;;;;3.97;3.10;;;18.50;53.50;;;;;;5412629;26;20231;-62
2024/04/23 08:26:20;;;;;;;4.65;3.00;;;17.50;55.20;;;;;;5419675;26;20274;-62
2024/04/23 08:28:52;;;;;;;3.80;3.10;;;16.40;57.00;;;;;;5424512;26;20237;-62
2024/04/23 08:31:18;;;;;;;3.40;3.10;;;15.20;59.30;;;;;;5417144;26;20280;-61
2024/04/23 08:33:49;;;;;;;4.13;3.13;;;14.00;60.50;;;;;;5412113;26;20637;-61
2024/04/23 08:36:15;;;;;;;3.33;3.00;;;13.20;62.50;;;;;;5417094;26;20236;-61
2024/04/23 08:38:43;;;;;;;4.33;3.17;;;12.60;65.10;;;;;;5424129;26;20280;-61
2024/04/23 08:41:14;;;;;;;4.60;3.63;;;12.10;67.10;;;;;;5421268;26;20234;-61
2024/04/23 08:43:52;;;;;;;6.63;3.53;;;11.40;68.70;;;;;;5411825;26;20236;-63
2024/04/23 08:46:18;;;;;;;3.77;3.27;;;11.00;70.70;;;;;;5418222;26;20273;-62
2024/04/23 08:48:50;;;;;;;5.70;3.77;;;10.80;71.50;;;;;;5424455;26;20336;-62
2024/04/23 08:51:19;;;;;;;3.73;3.30;;;10.40;72.70;;;;;;5417614;26;20292;-61
2024/04/23 08:53:48;;;;;;;6.00;3.43;;;10.20;74.20;;;;;;5412014;26;20233;-60
2024/04/23 08:56:22;;;;;;;4.37;3.07;;;10.00;73.00;;;;;;5416791;26;20281;-61
2024/04/23 08:58:51;;;;;;;3.40;3.10;;;9.90;76.10;;;;;;5424008;26;20272;-61
2024/04/23 09:01:26;;;;;;;5.57;3.30;;;9.80;77.60;;;;;;5423238;26;20240;-61
2024/04/23 09:03:57;;;;;;;4.80;3.50;;;9.80;77.20;;;;;;5423685;26;20233;-60
2024/04/23 09:06:24;;;;;;;3.90;3.50;;;9.90;76.10;;;;;;5414544;26;20268;-61
2024/04/23 09:08:52;;;;;;;6.17;3.23;;;10.00;75.20;;;;;;5410990;26;20240;-61
2024/04/23 09:11:18;;;;;;;4.80;3.07;;;10.00;75.40;;;;;;5416492;26;20786;-62
2024/04/23 09:13:47;;;;;;;6.53;3.07;;;10.00;75.60;;;;;;5423112;26;20234;-62
2024/04/23 09:16:12;;;;;;;3.50;3.07;;;10.10;75.10;;;;;;5419700;26;20276;-61
2024/04/23 09:18:41;;;;;;;4.40;3.40;;;10.20;74.70;;;;;;5411052;26;20236;-61
2024/04/23 09:21:09;;;;;;;3.73;3.27;;;10.20;73.20;;;;;;5410869;26;20278;-61
2024/04/23 09:23:38;;;;;;;5.13;3.30;;;10.30;72.60;;;;;;5423008;26;20660;-61
2024/04/23 09:26:05;;;;;;;4.43;3.20;;;10.40;73.60;;;;;;5403729;26;20320;-60
2024/04/23 09:28:35;;;;;;;3.53;3.23;;;10.40;73.80;;;;;;5409868;26;20287;-61
2024/04/23 09:31:04;;;;;;;3.73;3.20;;;10.50;73.40;;;;;;5409850;26;20236;-60
2024/04/23 09:33:31;;;;;;;3.80;3.30;;;10.50;73.90;;;;;;5422113;26;20229;-60
2024/04/23 09:36:04;;;;;;;4.40;3.20;;;10.50;72.60;;;;;;5422498;26;20330;-67
2024/04/23 09:38:39;;;;;;;3.70;3.10;;;10.60;71.40;;;;;;5411193;26;20235;-64
2024/04/23 09:41:08;;;;;;;3.67;3.20;;;10.60;71.80;;;;;;5409905;26;20240;-62
2024/04/23 09:43:36;;;;;;;3.43;3.03;;;10.70;72.10;;;;;;5409342;26;20234;-63
2024/04/23 09:46:05;;;;;;;3.77;2.90;;;10.70;71.80;;;;;;5422944;26;20234;-62
2024/04/23 09:48:32;;;;;;;3.63;3.10;;;10.70;72.10;;;;;;5410749;26;20232;-64
2024/04/23 09:51:04;;;;;;;3.87;3.13;;;10.90;71.00;;;;;;5409768;26;20677;-62
2024/04/23 09:53:31;;;;;;;3.60;3.27;;;10.90;70.60;;;;;;5422452;26;20227;-63
2024/04/23 09:56:03;;;;;;;3.57;3.03;;;11.10;71.30;;;;;;5422425;26;20707;-63
2024/04/23 09:58:28;;;;;;;3.60;3.00;;;11.20;72.30;;;;;;5411707;26;20271;-63
2024/04/23 10:00:58;;;;;;;5.20;3.60;;;11.10;71.00;;;;;;5409673;26;20256;-64
2024/04/23 10:03:25;;;;;;;4.03;2.90;;;11.10;71.60;;;;;;5416541;26;20766;-62
2024/04/23 10:05:54;;;;;;;3.60;3.30;;;11.20;71.90;;;;;;5421971;26;20238;-63
2024/04/23 10:08:30;;;;;;;4.03;3.20;;;11.30;71.70;;;;;;5415720;26;20229;-61
2024/04/23 10:11:02;;;;;;;5.10;3.53;;;11.40;70.70;;;;;;5409523;26;20282;-62
2024/04/23 10:13:33;;;;;;;3.03;2.70;;;11.50;70.20;;;;;;5419781;26;20832;-62
2024/04/23 10:16:09;;;;;;;5.50;3.47;;;11.60;68.80;;;;;;5421917;26;20304;-62
2024/04/23 10:18:43;;;;;;;4.43;3.70;;;11.70;68.30;;;;;;5422237;26;20234;-61
2024/04/23 10:21:15;;;;;;;4.33;3.40;;;11.80;68.90;;;;;;5420904;26;20271;-62
2024/04/23 10:23:41;;;;;;;5.83;3.33;;;11.80;69.70;;;;;;5410369;26;20232;-62
2024/04/23 10:26:14;;;;;;;4.30;3.07;;;11.80;68.40;;;;;;5409610;26;20239;-62
2024/04/23 10:28:40;;;;;;;5.03;3.30;;;11.90;67.50;;;;;;5410586;26;20273;-62
2024/04/23 10:31:09;;;;;;;4.47;3.50;;;11.90;68.30;;;;;;5421655;26;20823;-62
2024/04/23 10:33:36;;;;;;;4.93;3.53;;;12.00;68.30;;;;;;5423230;26;20237;-61
2024/04/23 10:36:06;;;;;;;4.13;3.10;;;12.20;68.70;;;;;;5422821;26;20699;-62
2024/04/23 10:38:37;;;;;;;4.93;3.20;;;12.50;69.00;;;;;;5410013;26;20232;-62
2024/04/23 10:41:04;;;;;;;5.00;3.10;;;12.80;69.20;;;;;;5409791;26;20291;-62
2024/04/23 10:43:36;;;;;;;5.13;3.27;;;12.90;69.40;;;;;;5420012;26;20272;-61
2024/04/23 10:46:02;;;;;;;6.03;3.20;;;13.00;68.00;;;;;;5421834;26;20234;-62
2024/04/23 10:48:30;;;;;;;3.37;2.90;;;13.10;66.60;;;;;;5412732;26;20590;-62
2024/04/23 10:50:58;;;;;;;3.87;3.30;;;13.40;66.00;;;;;;5408889;26;20240;-62
2024/04/23 10:53:26;;;;;;;3.20;2.87;;;13.80;66.50;;;;;;5417084;26;20736;-62
2024/04/23 10:55:52;;;;;;;3.97;2.97;;;14.00;64.20;;;;;;5421822;26;20707;-61
2024/04/23 10:58:22;;;;;;;3.37;2.83;;;13.80;64.50;;;;;;5416624;26;20276;-62
2024/04/23 11:03:28;;;;;;;3.90;2.93;;;13.20;66.10;;;;;;5434607;26;20554;-58
2024/04/23 11:05:54;;;;;;;5.17;3.27;;;13.30;66.50;;;;;;5436244;26;20233;-57
2024/04/23 11:08:24;;;;;;;3.73;2.80;;;13.50;67.10;;;;;;5433862;26;20595;-57
2024/04/23 11:10:51;;;;;;;3.60;2.83;;;14.00;65.10;;;;;;5428977;26;20231;-57
2024/04/23 11:13:28;;;;;;;5.50;2.90;;;14.20;63.50;;;;;;5410797;26;20235;-56
2024/04/23 11:15:54;;;;;;;2.93;2.63;;;14.20;63.50;;;;;;5415019;26;20227;-56
2024/04/23 11:18:26;;;;;;;3.33;2.47;;;14.10;65.10;;;;;;5415353;26;20282;-56
2024/04/23 11:20:55;;;;;;;4.50;3.17;;;13.90;63.50;;;;;;5414479;26;20262;-56
2024/04/23 11:23:24;;;;;;;2.80;2.60;;;13.70;63.30;;;;;;5415135;26;20328;-57
2024/04/23 11:25:50;;;;;;;3.33;2.83;;;13.30;63.50;;;;;;5416209;26;20230;-58
2024/04/23 11:28:18;;;;;;;2.90;2.50;;;13.00;62.90;;;;;;5415000;26;20620;-60
2024/04/23 11:30:51;;;;;;;3.17;2.60;;;13.00;62.50;;;;;;5414307;26;20235;-60
2024/04/23 11:33:20;;;;;;;3.67;3.00;;;13.30;61.50;;;;;;5414589;26;20662;-57
2024/04/23 11:35:52;;;;;;;6.40;3.00;;;13.70;62.70;;;;;;5415084;26;20572;-58
2024/04/23 11:38:20;;;;;;;5.40;2.93;;;14.20;63.70;;;;;;5414925;26;20266;-58
2024/04/23 11:40:47;;;;;;;3.30;2.90;;;14.60;63.30;;;;;;5414186;26;20285;-57
2024/04/23 11:43:18;;;;;;;3.20;2.80;;;14.90;63.80;;;;;;5414743;26;20704;-60
2024/04/23 11:45:46;;;;;;;3.40;2.77;;;15.10;62.30;;;;;;5415450;26;20235;-58
2024/04/23 11:48:14;;;;;;;3.47;2.80;;;15.60;60.80;;;;;;5414886;26;20243;-57
2024/04/23 11:50:41;;;;;;;3.50;2.60;;;16.10;60.20;;;;;;5414532;26;20239;-58
2024/04/23 11:53:12;;;;;;;4.43;3.00;;;16.30;60.00;;;;;;5414941;26;20281;-59
2024/04/23 11:55:38;;;;;;;3.10;2.80;;;15.90;59.40;;;;;;5401043;26;20277;-58
2024/04/23 11:58:06;;;;;;;4.27;2.53;;;15.60;60.40;;;;;;5415205;26;20239;-58
2024/04/23 12:00:32;;;;;;;4.70;2.70;;;15.40;60.80;;;;;;5414742;26;20712;-58
2024/04/23 12:03:00;;;;;;;4.93;3.10;;;15.50;61.60;;;;;;5413980;26;20273;-58
2024/04/23 12:05:27;;;;;;;4.10;2.90;;;15.60;62.60;;;;;;5414848;26;20231;-58
2024/04/23 12:07:57;;;;;;;4.33;3.17;;;15.70;61.80;;;;;;5414815;26;20323;-59
2024/04/23 12:10:33;;;;;;;3.63;2.73;;;15.50;61.10;;;;;;5414830;26;20610;-57
2024/04/23 12:13:03;;;;;;;4.20;3.13;;;15.20;62.20;;;;;;5414173;26;20239;-60
2024/04/23 12:15:29;;;;;;;5.87;3.03;;;15.00;62.00;;;;;;5414410;26;20231;-57
2024/04/23 12:17:58;;;;;;;3.97;2.97;;;15.10;60.80;;;;;;5414426;26;20264;-58
2024/04/23 12:20:24;;;;;;;5.10;2.80;;;15.40;60.60;;;;;;5414279;26;20231;-58
2024/04/23 12:22:52;;;;;;;2.93;2.70;;;15.50;60.90;;;;;;5413410;26;20240;-58
2024/04/23 12:25:18;;;;;;;3.00;2.70;;;15.60;61.10;;;;;;5414072;26;20234;-58
2024/04/23 12:27:49;;;;;;;3.43;2.70;;;15.70;60.70;;;;;;5418144;26;20357;-58
2024/04/23 12:30:15;;;;;;;5.03;3.20;;;16.00;59.50;;;;;;5418082;26;20227;-58
2024/04/23 12:32:46;;;;;;;3.70;3.30;;;16.10;60.30;;;;;;5417420;26;20251;-58
2024/04/23 12:35:11;;;;;;;4.07;3.30;;;15.80;60.10;;;;;;5418606;26;20785;-57
2024/04/23 12:37:40;;;;;;;6.50;2.90;;;15.60;60.90;;;;;;5418257;26;20235;-58
2024/04/23 12:40:09;;;;;;;3.27;2.97;;;15.50;61.60;;;;;;5418201;26;20273;-58
2024/04/23 12:42:37;;;;;;;3.83;3.00;;;15.60;62.00;;;;;;5417008;26;20239;-58
2024/04/23 12:45:09;;;;;;;4.13;2.70;;;15.50;62.50;;;;;;5417776;26;20242;-58
2024/04/23 12:47:34;;;;;;;4.97;2.70;;;15.40;62.50;;;;;;5417798;26;20270;-58
2024/04/23 12:50:03;;;;;;;3.63;3.20;;;15.40;61.80;;;;;;5417240;26;20234;-58
2024/04/23 12:52:28;;;;;;;4.23;3.50;;;15.00;62.20;;;;;;5417092;26;20235;-58
2024/04/23 12:54:57;;;;;;;3.33;2.80;;;14.80;62.90;;;;;;5417608;26;20281;-57
2024/04/23 12:57:23;;;;;;;3.10;2.57;;;14.60;62.70;;;;;;5417168;26;20242;-59
2024/04/23 12:59:51;;;;;;;5.07;2.97;;;14.40;63.70;;;;;;5417967;26;20754;-59
2024/04/23 13:02:19;;;;;;;4.17;2.67;;;14.20;63.70;;;;;;5416924;26;20239;-59
2024/04/23 13:04:48;;;;;;;3.20;2.90;;;14.20;64.20;;;;;;5417068;26;20270;-57